Time;durP1;ratioP1;P1;durP2;ratioP2;P2;SDS_P1;SDS_P2;PMS_P1;PMS_P2;Temp;Humidity;BMP_temperature;BMP_pressure;BME280_temperature;BME280_humidity;BME280_pressure;Samples;Min_cycle;Max_cycle;Signal;HPM_P1;HPM_P2
2022/08/23 00:01:01;;;;;;;;;;;;;;;;;;5074758;28;20282;-41
2022/08/23 00:03:27;;;;;;;;;;;;;;;;;;5073388;28;20310;-41
2022/08/23 00:05:52;;;;;;;;;;;;;;;;;;5074323;28;20358;-41
2022/08/23 00:08:17;;;;;;;;;;;;;;;;;;5074324;28;19966;-42
2022/08/23 00:10:42;;;;;;;;;;;;;;;;;;5074520;28;19916;-41
2022/08/23 00:13:09;;;;;;;;;;;;;;;;;;5074232;28;19960;-41
2022/08/23 00:15:34;;;;;;;;;;;;;;;;;;5072955;28;19909;-41
2022/08/23 00:17:59;;;;;;;;;;;;;;;;;;5074225;28;19919;-41
2022/08/23 00:20:25;;;;;;;;;;;;;;;;;;5074131;28;19909;-42
2022/08/23 00:22:50;;;;;;;;;;;;;;;;;;5074111;28;19943;-41
2022/08/23 00:25:16;;;;;;;;;;;;;;;;;;5073919;28;19990;-41
2022/08/23 00:27:41;;;;;;;;;;;;;;;;;;5073946;28;19916;-41
2022/08/23 00:30:06;;;;;;;;;;;;;;;;;;5074114;28;19924;-41
2022/08/23 00:32:32;;;;;;;;;;;;;;;;;;5074148;28;19966;-41
2022/08/23 00:34:57;;;;;;;;;;;;;;;;;;5073684;28;19924;-41
2022/08/23 00:37:22;;;;;;;;;;;;;;;;;;5073724;28;19912;-41
2022/08/23 00:39:48;;;;;;;;;;;;;;;;;;5055918;28;19959;-41
2022/08/23 00:47:58;;;;;;;;;;;;;;;;;;5065843;28;19917;-41
2022/08/23 00:50:23;;;;;;;;;;;;;;;;;;5073487;28;19927;-41
2022/08/23 00:52:49;;;;;;;;;;;;;;;;;;5073461;28;20006;-41
2022/08/23 00:55:15;;;;;;;;;;;;;;;;;;5071993;28;19947;-42
2022/08/23 00:57:40;;;;;;;;;;;;;;;;;;5072165;28;19966;-41
2022/08/23 01:00:06;;;;;;;;;;;;;;;;;;5073573;28;19958;-41
2022/08/23 01:02:31;;;;;;;;;;;;;;;;;;5072029;28;19920;-40
2022/08/23 01:04:57;;;;;;;;;;;;;;;;;;5073280;28;19908;-41
2022/08/23 01:07:22;;;;;;;;;;;;;;;;;;5073360;28;19919;-41
2022/08/23 01:09:47;;;;;;;;;;;;;;;;;;5072041;28;20294;-41
2022/08/23 01:12:14;;;;;;;;;;;;;;;;;;5073288;28;19959;-41
2022/08/23 01:14:39;;;;;;;;;;;;;;;;;;5071770;28;19909;-41
2022/08/23 01:17:05;;;;;;;;;;;;;;;;;;5071930;28;19943;-41
2022/08/23 01:19:30;;;;;;;;;;;;;;;;;;5073245;28;19954;-41
2022/08/23 01:21:55;;;;;;;;;;;;;;;;;;5072968;28;20338;-41
2022/08/23 01:24:21;;;;;;;;;;;;;;;;;;5071510;28;19908;-41
2022/08/23 01:26:46;;;;;;;;;;;;;;;;;;5071473;28;20006;-41
2022/08/23 01:29:12;;;;;;;;;;;;;;;;;;5071435;28;19908;-41
2022/08/23 01:31:37;;;;;;;;;;;;;;;;;;5071462;28;19928;-41
2022/08/23 01:34:03;;;;;;;;;;;;;;;;;;5071196;28;20027;-41
2022/08/23 01:36:28;;;;;;;;;;;;;;;;;;5071311;28;20429;-41
2022/08/23 01:38:53;;;;;;;;;;;;;;;;;;5071357;28;19930;-41
2022/08/23 01:41:18;;;;;;;;;;;;;;;;;;5071136;28;19916;-41
2022/08/23 01:43:45;;;;;;;;;;;;;;;;;;5071244;28;19956;-41
2022/08/23 01:46:11;;;;;;;;;;;;;;;;;;5071053;28;20423;-41
2022/08/23 01:48:36;;;;;;;;;;;;;;;;;;5071172;28;20016;-41
2022/08/23 01:51:02;;;;;;;;;;;;;;;;;;5054371;28;20410;-41
2022/08/23 01:53:27;;;;;;;;;;;;;;;;;;5071006;28;19970;-41
2022/08/23 01:55:53;;;;;;;;;;;;;;;;;;5070975;28;20018;-41
2022/08/23 01:58:19;;;;;;;;;;;;;;;;;;5070898;28;20259;-41
2022/08/23 02:00:44;;;;;;;;;;;;;;;;;;5070087;28;19966;-41
2022/08/23 02:03:11;;;;;;;;;;;;;;;;;;5072105;28;20349;-41
2022/08/23 02:05:36;;;;;;;;;;;;;;;;;;5054215;28;19955;-41
2022/08/23 02:08:59;;;;;;;;;;;;;;;;;;5072186;28;19919;-41
2022/08/23 02:10:49;;;;;;;;;;;;;;;;;;5070674;28;20398;-41
2022/08/23 02:13:14;;;;;;;;;;;;;;;;;;5071946;28;20342;-41
2022/08/23 02:15:40;;;;;;;;;;;;;;;;;;5070671;28;19912;-41
2022/08/23 02:18:05;;;;;;;;;;;;;;;;;;5071931;28;19916;-41
2022/08/23 02:20:31;;;;;;;;;;;;;;;;;;5070685;28;20370;-41
2022/08/23 02:22:56;;;;;;;;;;;;;;;;;;5072305;28;20272;-41
2022/08/23 02:25:21;;;;;;;;;;;;;;;;;;5070430;28;19912;-41
2022/08/23 02:27:46;;;;;;;;;;;;;;;;;;5070600;28;19966;-41
2022/08/23 02:30:12;;;;;;;;;;;;;;;;;;5070391;28;19922;-41
2022/08/23 02:32:37;;;;;;;;;;;;;;;;;;5070521;28;19913;-41
2022/08/23 02:35:02;;;;;;;;;;;;;;;;;;5070293;28;19928;-41
2022/08/23 02:37:28;;;;;;;;;;;;;;;;;;5070444;28;19912;-42
2022/08/23 02:39:53;;;;;;;;;;;;;;;;;;5070388;28;19912;-41
2022/08/23 02:42:19;;;;;;;;;;;;;;;;;;5070407;28;19963;-41
2022/08/23 02:44:44;;;;;;;;;;;;;;;;;;5070391;28;19959;-41
2022/08/23 02:47:11;;;;;;;;;;;;;;;;;;5070230;28;19978;-41
2022/08/23 02:49:40;;;;;;;;;;;;;;;;;;5070471;28;19963;-41
2022/08/23 02:52:05;;;;;;;;;;;;;;;;;;5070213;28;19959;-41
2022/08/23 02:54:30;;;;;;;;;;;;;;;;;;5071478;28;19958;-41
2022/08/23 02:56:56;;;;;;;;;;;;;;;;;;5070311;28;19908;-40
2022/08/23 02:59:21;;;;;;;;;;;;;;;;;;5070203;28;20274;-41
2022/08/23 03:01:47;;;;;;;;;;;;;;;;;;5070234;28;20317;-40
2022/08/23 03:04:20;;;;;;;;;;;;;;;;;;5070074;28;19912;-41
2022/08/23 03:06:45;;;;;;;;;;;;;;;;;;5071556;28;19985;-41
2022/08/23 03:09:11;;;;;;;;;;;;;;;;;;5070113;28;19908;-40
2022/08/23 03:11:37;;;;;;;;;;;;;;;;;;5072884;28;19927;-41
2022/08/23 03:14:02;;;;;;;;;;;;;;;;;;5074066;28;19932;-41
2022/08/23 03:16:28;;;;;;;;;;;;;;;;;;5073985;28;19995;-41
2022/08/23 03:18:53;;;;;;;;;;;;;;;;;;5074103;28;19909;-40
2022/08/23 03:21:18;;;;;;;;;;;;;;;;;;5073888;28;19923;-41
2022/08/23 03:23:45;;;;;;;;;;;;;;;;;;5073962;28;19912;-41
2022/08/23 03:26:10;;;;;;;;;;;;;;;;;;5073739;28;19921;-40
2022/08/23 03:28:36;;;;;;;;;;;;;;;;;;5073783;28;19909;-41
2022/08/23 03:31:02;;;;;;;;;;;;;;;;;;5073718;28;19927;-40
2022/08/23 03:33:28;;;;;;;;;;;;;;;;;;5073482;28;19995;-40
2022/08/23 03:35:53;;;;;;;;;;;;;;;;;;5075171;28;20449;-41
2022/08/23 03:38:19;;;;;;;;;;;;;;;;;;5073597;28;20354;-41
2022/08/23 03:40:51;;;;;;;;;;;;;;;;;;5073259;28;20292;-41
2022/08/23 03:43:16;;;;;;;;;;;;;;;;;;5073460;28;19921;-41
2022/08/23 03:45:41;;;;;;;;;;;;;;;;;;5074632;28;19920;-41
2022/08/23 03:48:08;;;;;;;;;;;;;;;;;;5073380;28;19924;-41
2022/08/23 03:50:33;;;;;;;;;;;;;;;;;;5073316;28;19921;-41
2022/08/23 03:52:58;;;;;;;;;;;;;;;;;;5074690;28;20283;-41
2022/08/23 03:55:24;;;;;;;;;;;;;;;;;;5073258;28;19908;-41
2022/08/23 03:57:50;;;;;;;;;;;;;;;;;;5073266;28;19916;-41
2022/08/23 04:00:17;;;;;;;;;;;;;;;;;;5073107;28;19916;-41
2022/08/23 04:02:44;;;;;;;;;;;;;;;;;;5073237;28;19961;-41
2022/08/23 04:05:11;;;;;;;;;;;;;;;;;;5072969;28;19916;-40
2022/08/23 04:08:05;;;;;;;;;;;;;;;;;;5057931;28;19913;-40
2022/08/23 04:10:31;;;;;;;;;;;;;;;;;;5074103;28;19920;-41
2022/08/23 04:12:56;;;;;;;;;;;;;;;;;;5073060;28;20409;-41
2022/08/23 04:15:23;;;;;;;;;;;;;;;;;;5072869;28;19920;-41
2022/08/23 04:17:48;;;;;;;;;;;;;;;;;;5072969;28;20416;-41
2022/08/23 04:20:14;;;;;;;;;;;;;;;;;;5072824;28;19983;-40
2022/08/23 04:22:48;;;;;;;;;;;;;;;;;;5071833;28;19913;-41
2022/08/23 04:25:13;;;;;;;;;;;;;;;;;;5072668;28;20007;-40
2022/08/23 04:27:40;;;;;;;;;;;;;;;;;;5056119;28;20393;-40
2022/08/23 04:30:05;;;;;;;;;;;;;;;;;;5073968;28;19926;-41
2022/08/23 04:32:31;;;;;;;;;;;;;;;;;;5072527;28;20323;-40
2022/08/23 04:34:57;;;;;;;;;;;;;;;;;;5072293;28;20387;-40
2022/08/23 04:37:22;;;;;;;;;;;;;;;;;;5072431;28;19963;-41
2022/08/23 04:42:39;;;;;;;;;;;;;;;;;;5072505;28;19920;-42
2022/08/23 04:45:05;;;;;;;;;;;;;;;;;;5072426;28;20275;-41
2022/08/23 04:47:32;;;;;;;;;;;;;;;;;;5072256;28;20031;-41
2022/08/23 04:49:59;;;;;;;;;;;;;;;;;;5072240;28;20011;-41
2022/08/23 04:52:24;;;;;;;;;;;;;;;;;;5072260;28;20035;-41
2022/08/23 04:54:50;;;;;;;;;;;;;;;;;;5072158;28;20078;-41
2022/08/23 04:57:35;;;;;;;;;;;;;;;;;;5073390;28;19943;-41
2022/08/23 05:00:00;;;;;;;;;;;;;;;;;;5072130;28;19963;-41
2022/08/23 05:02:26;;;;;;;;;;;;;;;;;;5071986;28;19962;-41
2022/08/23 05:04:53;;;;;;;;;;;;;;;;;;5071993;28;20392;-41
2022/08/23 05:07:19;;;;;;;;;;;;;;;;;;5055268;28;19948;-41
2022/08/23 05:09:44;;;;;;;;;;;;;;;;;;5072032;28;19916;-41
2022/08/23 05:12:11;;;;;;;;;;;;;;;;;;5071806;28;19916;-40
2022/08/23 05:14:36;;;;;;;;;;;;;;;;;;5071741;28;19942;-41
2022/08/23 05:17:02;;;;;;;;;;;;;;;;;;5073106;28;19915;-41
2022/08/23 05:19:27;;;;;;;;;;;;;;;;;;5072951;28;19916;-41
2022/08/23 05:21:53;;;;;;;;;;;;;;;;;;5071631;28;20007;-41
2022/08/23 05:24:19;;;;;;;;;;;;;;;;;;5071548;28;19954;-41
2022/08/23 05:26:45;;;;;;;;;;;;;;;;;;5071631;28;19916;-41
2022/08/23 05:29:11;;;;;;;;;;;;;;;;;;5071403;28;20281;-41
2022/08/23 05:31:42;;;;;;;;;;;;;;;;;;5071389;28;19931;-41
2022/08/23 05:34:08;;;;;;;;;;;;;;;;;;5071032;28;19924;-41
2022/08/23 05:36:53;;;;;;;;;;;;;;;;;;5072034;28;19909;-40
2022/08/23 05:39:19;;;;;;;;;;;;;;;;;;5054792;28;20388;-40
2022/08/23 05:41:46;;;;;;;;;;;;;;;;;;5071380;28;19912;-40
2022/08/23 05:44:16;;;;;;;;;;;;;;;;;;5054924;28;20362;-41
2022/08/23 05:46:42;;;;;;;;;;;;;;;;;;5071200;28;19912;-41
2022/08/23 05:49:30;;;;;;;;;;;;;;;;;;5072327;28;19965;-41
2022/08/23 05:51:56;;;;;;;;;;;;;;;;;;5071051;28;19921;-41
2022/08/23 05:54:25;;;;;;;;;;;;;;;;;;5071241;28;19920;-41
2022/08/23 05:57:14;;;;;;;;;;;;;;;;;;5063936;28;19970;-40
2022/08/23 05:59:40;;;;;;;;;;;;;;;;;;5071021;28;20360;-41
2022/08/23 06:02:05;;;;;;;;;;;;;;;;;;5070922;28;19934;-40
2022/08/23 06:04:32;;;;;;;;;;;;;;;;;;5070668;28;20007;-39
2022/08/23 06:06:57;;;;;;;;;;;;;;;;;;5071034;28;19912;-41
2022/08/23 06:09:23;;;;;;;;;;;;;;;;;;5070725;28;19916;-40
2022/08/23 06:11:49;;;;;;;;;;;;;;;;;;5070742;28;19920;-40
2022/08/23 06:14:15;;;;;;;;;;;;;;;;;;5070676;28;19918;-40
2022/08/23 06:16:42;;;;;;;;;;;;;;;;;;5070678;28;19908;-41
2022/08/23 06:19:09;;;;;;;;;;;;;;;;;;5070691;28;19913;-41
2022/08/23 06:21:46;;;;;;;;;;;;;;;;;;5072007;28;19909;-41
2022/08/23 06:24:13;;;;;;;;;;;;;;;;;;5070593;28;19916;-40
2022/08/23 06:26:48;;;;;;;;;;;;;;;;;;5070520;28;19923;-40
2022/08/23 06:29:13;;;;;;;;;;;;;;;;;;5053791;28;19916;-40
2022/08/23 06:31:48;;;;;;;;;;;;;;;;;;5070472;28;19924;-40
2022/08/23 06:34:25;;;;;;;;;;;;;;;;;;5070228;28;20396;-40
2022/08/23 06:37:00;;;;;;;;;;;;;;;;;;5055230;28;20061;-41
2022/08/23 06:40:04;;;;;;;;;;;;;;;;;;5055913;28;19913;-40
2022/08/23 06:43:04;;;;;;;;;;;;;;;;;;5009653;28;19913;-40
2022/08/23 06:45:49;;;;;;;;;;;;;;;;;;5063276;28;20343;-40
2022/08/23 06:48:14;;;;;;;;;;;;;;;;;;5070283;28;20015;-41
2022/08/23 06:50:40;;;;;;;;;;;;;;;;;;5070293;28;19920;-40
2022/08/23 06:53:44;;;;;;;;;;;;;;;;;;5055025;28;19913;-41
2022/08/23 06:56:29;;;;;;;;;;;;;;;;;;5071377;28;19924;-40
2022/08/23 06:59:08;;;;;;;;;;;;;;;;;;5070294;28;19920;-40
2022/08/23 07:01:55;;;;;;;;;;;;;;;;;;5070311;28;19916;-41
2022/08/23 07:04:43;;;;;;;;;;;;;;;;;;5042763;28;20003;-41
2022/08/23 07:07:47;;;;;;;;;;;;;;;;;;4989959;28;20382;-41
2022/08/23 07:10:13;;;;;;;;;;;;;;;;;;4989552;28;19914;-41
2022/08/23 07:12:40;;;;;;;;;;;;;;;;;;5026787;28;19916;-40
2022/08/23 07:15:07;;;;;;;;;;;;;;;;;;5071525;28;19912;-41
2022/08/23 07:17:32;;;;;;;;;;;;;;;;;;5069984;28;19935;-41
2022/08/23 07:19:57;;;;;;;;;;;;;;;;;;5070165;28;19916;-41
2022/08/23 07:22:23;;;;;;;;;;;;;;;;;;5069932;28;19915;-41
2022/08/23 07:24:49;;;;;;;;;;;;;;;;;;5070095;28;19912;-41
2022/08/23 07:27:14;;;;;;;;;;;;;;;;;;5070013;28;19909;-41
2022/08/23 07:29:50;;;;;;;;;;;;;;;;;;5069990;28;20374;-40
2022/08/23 07:32:16;;;;;;;;;;;;;;;;;;5070120;28;19978;-40
2022/08/23 07:34:41;;;;;;;;;;;;;;;;;;5071233;28;20519;-40
2022/08/23 07:37:06;;;;;;;;;;;;;;;;;;5069896;28;19913;-40
2022/08/23 07:39:32;;;;;;;;;;;;;;;;;;5071396;28;19912;-41
2022/08/23 07:41:58;;;;;;;;;;;;;;;;;;5071276;28;19923;-40
2022/08/23 07:44:23;;;;;;;;;;;;;;;;;;5069764;28;19912;-41
2022/08/23 07:46:48;;;;;;;;;;;;;;;;;;5053160;28;19916;-40
2022/08/23 07:49:14;;;;;;;;;;;;;;;;;;5069750;28;19909;-40
2022/08/23 07:51:42;;;;;;;;;;;;;;;;;;5069737;28;19920;-41
2022/08/23 07:54:08;;;;;;;;;;;;;;;;;;5069704;28;19913;-41
2022/08/23 07:56:38;;;;;;;;;;;;;;;;;;5069759;28;20061;-41
2022/08/23 07:59:06;;;;;;;;;;;;;;;;;;5071743;28;20398;-40
2022/08/23 08:01:46;;;;;;;;;;;;;;;;;;5073335;28;19913;-41
2022/08/23 08:04:11;;;;;;;;;;;;;;;;;;5073106;28;19912;-42
2022/08/23 08:06:39;;;;;;;;;;;;;;;;;;5056754;28;19954;-40
2022/08/23 08:09:05;;;;;;;;;;;;;;;;;;5073173;28;19923;-41
2022/08/23 08:11:30;;;;;;;;;;;;;;;;;;5072878;28;19920;-41
2022/08/23 08:13:56;;;;;;;;;;;;;;;;;;5072960;28;19928;-41
2022/08/23 08:16:22;;;;;;;;;;;;;;;;;;5072945;28;19916;-45
2022/08/23 08:18:47;;;;;;;;;;;;;;;;;;5072954;28;20102;-40
2022/08/23 08:21:31;;;;;;;;;;;;;;;;;;5074515;28;20456;-41
2022/08/23 08:24:00;;;;;;;;;;;;;;;;;;5072804;28;19917;-41
2022/08/23 08:26:36;;;;;;;;;;;;;;;;;;5072787;28;19991;-41
2022/08/23 08:29:02;;;;;;;;;;;;;;;;;;5072789;28;19959;-41
2022/08/23 08:31:27;;;;;;;;;;;;;;;;;;5072507;28;19921;-41
2022/08/23 08:33:53;;;;;;;;;;;;;;;;;;5072389;28;19920;-41
2022/08/23 08:36:18;;;;;;;;;;;;;;;;;;5072522;28;20015;-41
2022/08/23 08:38:44;;;;;;;;;;;;;;;;;;5072585;28;19912;-41
2022/08/23 08:41:09;;;;;;;;;;;;;;;;;;5072415;28;19917;-41
2022/08/23 08:43:34;;;;;;;;;;;;;;;;;;5072401;28;19970;-41
2022/08/23 08:46:00;;;;;;;;;;;;;;;;;;5072527;28;19943;-41
2022/08/23 08:48:25;;;;;;;;;;;;;;;;;;5072303;28;19958;-41
2022/08/23 08:50:51;;;;;;;;;;;;;;;;;;5072304;28;19928;-41
2022/08/23 08:53:16;;;;;;;;;;;;;;;;;;5073734;28;19912;-41
2022/08/23 08:56:05;;;;;;;;;;;;;;;;;;5065244;28;20278;-41
2022/08/23 08:58:34;;;;;;;;;;;;;;;;;;5072166;28;20004;-41
2022/08/23 09:00:59;;;;;;;;;;;;;;;;;;5072153;28;19995;-41
2022/08/23 09:03:24;;;;;;;;;;;;;;;;;;5071904;28;20282;-41
2022/08/23 09:05:49;;;;;;;;;;;;;;;;;;5072095;28;19912;-41
2022/08/23 09:08:15;;;;;;;;;;;;;;;;;;5071993;28;19916;-41
2022/08/23 09:10:40;;;;;;;;;;;;;;;;;;5071612;28;19920;-41
2022/08/23 09:13:07;;;;;;;;;;;;;;;;;;5071966;28;20562;-41
2022/08/23 09:15:33;;;;;;;;;;;;;;;;;;5071748;28;19908;-41
2022/08/23 09:17:58;;;;;;;;;;;;;;;;;;5071805;28;19920;-41
2022/08/23 09:20:24;;;;;;;;;;;;;;;;;;5071651;28;19909;-40
2022/08/23 09:22:50;;;;;;;;;;;;;;;;;;5073258;28;19913;-42
2022/08/23 09:25:26;;;;;;;;;;;;;;;;;;5071538;28;19991;-41
2022/08/23 09:28:12;;;;;;;;;;;;;;;;;;5072497;28;19912;-41
2022/08/23 09:30:37;;;;;;;;;;;;;;;;;;5054888;28;20393;-41
2022/08/23 09:33:03;;;;;;;;;;;;;;;;;;5073033;28;19916;-41
2022/08/23 09:35:28;;;;;;;;;;;;;;;;;;5071175;28;20445;-41
2022/08/23 09:38:03;;;;;;;;;;;;;;;;;;5071352;28;19912;-41
2022/08/23 09:40:33;;;;;;;;;;;;;;;;;;5071282;28;19920;-41
2022/08/23 09:42:59;;;;;;;;;;;;;;;;;;5071352;28;20290;-41
2022/08/23 09:45:24;;;;;;;;;;;;;;;;;;5072420;28;19909;-41
2022/08/23 09:47:50;;;;;;;;;;;;;;;;;;5072495;28;19913;-41
2022/08/23 09:50:17;;;;;;;;;;;;;;;;;;5071034;28;19909;-40
2022/08/23 09:52:43;;;;;;;;;;;;;;;;;;5071057;28;20396;-41
2022/08/23 09:55:10;;;;;;;;;;;;;;;;;;5071048;28;19912;-41
2022/08/23 09:57:41;;;;;;;;;;;;;;;;;;5071044;28;19987;-41
2022/08/23 10:00:06;;;;;;;;;;;;;;;;;;5070996;28;19916;-41
2022/08/23 10:02:37;;;;;;;;;;;;;;;;;;5072234;28;19917;-42
2022/08/23 10:05:23;;;;;;;;;;;;;;;;;;5070842;28;19919;-41
2022/08/23 10:07:50;;;;;;;;;;;;;;;;;;5072102;28;20298;-41
2022/08/23 10:10:16;;;;;;;;;;;;;;;;;;5070768;28;20458;-40
2022/08/23 10:12:41;;;;;;;;;;;;;;;;;;5070781;28;20045;-41
2022/08/23 10:15:08;;;;;;;;;;;;;;;;;;5070721;28;19954;-41
2022/08/23 10:17:34;;;;;;;;;;;;;;;;;;5070640;28;20473;-41
2022/08/23 10:19:59;;;;;;;;;;;;;;;;;;5070675;28;19974;-41
2022/08/23 10:22:25;;;;;;;;;;;;;;;;;;5069868;28;19912;-41
2022/08/23 10:25:14;;;;;;;;;;;;;;;;;;5058411;28;20351;-41
2022/08/23 10:30:24;;;;;;;;;;;;;;;;;;5070454;28;19923;-41
2022/08/23 10:32:49;;;;;;;;;;;;;;;;;;5070586;28;20011;-40
2022/08/23 10:35:15;;;;;;;;;;;;;;;;;;5070290;28;20472;-41
2022/08/23 10:37:40;;;;;;;;;;;;;;;;;;5072146;28;19920;-41
2022/08/23 10:40:07;;;;;;;;;;;;;;;;;;5070517;28;20337;-41
2022/08/23 10:42:34;;;;;;;;;;;;;;;;;;5070400;28;20392;-41
2022/08/23 10:45:00;;;;;;;;;;;;;;;;;;5071649;28;19913;-41
2022/08/23 10:47:26;;;;;;;;;;;;;;;;;;5070449;28;19916;-41
2022/08/23 10:49:52;;;;;;;;;;;;;;;;;;5070433;28;19912;-40
2022/08/23 10:52:18;;;;;;;;;;;;;;;;;;5070222;28;19946;-41
2022/08/23 10:54:58;;;;;;;;;;;;;;;;;;5070275;28;19923;-40
2022/08/23 10:57:23;;;;;;;;;;;;;;;;;;5070254;28;19913;-40
2022/08/23 10:59:48;;;;;;;;;;;;;;;;;;5070357;28;20018;-40
2022/08/23 11:02:14;;;;;;;;;;;;;;;;;;5071458;28;19991;-41
2022/08/23 11:04:39;;;;;;;;;;;;;;;;;;5070204;28;19909;-41
2022/08/23 11:07:26;;;;;;;;;;;;;;;;;;5070161;28;19913;-40
2022/08/23 11:09:52;;;;;;;;;;;;;;;;;;5070257;28;19920;-40
2022/08/23 11:12:18;;;;;;;;;;;;;;;;;;5069992;28;20433;-41
2022/08/23 11:14:44;;;;;;;;;;;;;;;;;;5071372;28;20015;-41
2022/08/23 11:17:10;;;;;;;;;;;;;;;;;;5070190;28;20026;-40
2022/08/23 11:19:36;;;;;;;;;;;;;;;;;;5069997;28;20022;-41
2022/08/23 11:22:01;;;;;;;;;;;;;;;;;;5070126;28;20376;-41
2022/08/23 11:24:26;;;;;;;;;;;;;;;;;;5053254;28;19913;-41
2022/08/23 11:26:52;;;;;;;;;;;;;;;;;;5070027;28;19909;-41
2022/08/23 11:29:17;;;;;;;;;;;;;;;;;;5070027;28;19923;-41
2022/08/23 11:31:48;;;;;;;;;;;;;;;;;;5070017;28;19920;-41
2022/08/23 11:34:15;;;;;;;;;;;;;;;;;;5073567;28;19921;-41
2022/08/23 11:36:40;;;;;;;;;;;;;;;;;;5073752;28;20381;-41
2022/08/23 11:39:06;;;;;;;;;;;;;;;;;;5073658;28;20009;-41
2022/08/23 11:41:31;;;;;;;;;;;;;;;;;;5073590;28;19908;-41
2022/08/23 11:43:56;;;;;;;;;;;;;;;;;;5073913;28;20070;-41
2022/08/23 11:46:22;;;;;;;;;;;;;;;;;;5073479;28;20413;-41
2022/08/23 11:48:47;;;;;;;;;;;;;;;;;;5073514;28;19990;-41
2022/08/23 11:51:12;;;;;;;;;;;;;;;;;;5074893;28;19978;-41
2022/08/23 11:53:37;;;;;;;;;;;;;;;;;;5074845;28;19917;-42
2022/08/23 11:56:03;;;;;;;;;;;;;;;;;;5073461;28;20370;-41
2022/08/23 11:58:28;;;;;;;;;;;;;;;;;;5074487;28;19922;-41
2022/08/23 12:03:18;;;;;;;;;;;;;;;;;;5024833;28;20305;-40
2022/08/23 12:05:44;;;;;;;;;;;;;;;;;;5033453;28;19913;-42
2022/08/23 12:08:09;;;;;;;;;;;;;;;;;;5033373;28;19944;-41
2022/08/23 12:10:34;;;;;;;;;;;;;;;;;;5034580;28;19924;-41
2022/08/23 12:13:00;;;;;;;;;;;;;;;;;;5034862;28;19920;-41
2022/08/23 12:15:25;;;;;;;;;;;;;;;;;;5034725;28;19916;-41
2022/08/23 12:17:52;;;;;;;;;;;;;;;;;;5034516;28;20542;-41
2022/08/23 12:20:17;;;;;;;;;;;;;;;;;;5034667;28;19913;-41
2022/08/23 12:22:42;;;;;;;;;;;;;;;;;;5034607;28;20259;-44
2022/08/23 12:25:08;;;;;;;;;;;;;;;;;;5033188;28;19913;-41
2022/08/23 12:27:33;;;;;;;;;;;;;;;;;;5034556;28;19913;-41
2022/08/23 12:29:58;;;;;;;;;;;;;;;;;;5034278;28;20366;-41
2022/08/23 12:32:23;;;;;;;;;;;;;;;;;;5034014;28;19921;-41
2022/08/23 12:34:49;;;;;;;;;;;;;;;;;;5034545;28;19913;-41
2022/08/23 12:37:14;;;;;;;;;;;;;;;;;;5034001;28;19909;-42
2022/08/23 12:39:39;;;;;;;;;;;;;;;;;;5034128;28;19918;-41
2022/08/23 12:42:05;;;;;;;;;;;;;;;;;;5033107;28;19910;-41
2022/08/23 12:44:30;;;;;;;;;;;;;;;;;;5033263;28;20393;-41
2022/08/23 12:46:55;;;;;;;;;;;;;;;;;;5034026;28;20382;-41
2022/08/23 12:49:20;;;;;;;;;;;;;;;;;;5033851;28;19917;-41
2022/08/23 12:51:46;;;;;;;;;;;;;;;;;;5034064;28;19970;-41
2022/08/23 12:54:11;;;;;;;;;;;;;;;;;;5033949;28;19920;-41
2022/08/23 12:56:36;;;;;;;;;;;;;;;;;;5033799;28;19967;-42
2022/08/23 12:59:03;;;;;;;;;;;;;;;;;;5033686;28;19920;-41
2022/08/23 13:01:28;;;;;;;;;;;;;;;;;;5033474;28;20366;-41
2022/08/23 13:03:54;;;;;;;;;;;;;;;;;;5033498;28;19943;-41
2022/08/23 13:06:19;;;;;;;;;;;;;;;;;;5033734;28;20358;-41
2022/08/23 13:08:44;;;;;;;;;;;;;;;;;;5033545;28;19913;-41
2022/08/23 13:11:10;;;;;;;;;;;;;;;;;;5033426;28;19975;-41
2022/08/23 13:13:35;;;;;;;;;;;;;;;;;;5032365;28;20004;-41
2022/08/23 13:16:01;;;;;;;;;;;;;;;;;;5033720;28;20251;-41
2022/08/23 13:18:26;;;;;;;;;;;;;;;;;;5033584;28;19917;-40
2022/08/23 13:20:51;;;;;;;;;;;;;;;;;;5048618;28;20381;-41
2022/08/23 13:23:17;;;;;;;;;;;;;;;;;;5033079;28;19913;-41
2022/08/23 13:25:42;;;;;;;;;;;;;;;;;;5032332;28;19952;-41
2022/08/23 13:28:07;;;;;;;;;;;;;;;;;;5033463;28;20335;-41
2022/08/23 13:30:33;;;;;;;;;;;;;;;;;;5033044;28;20366;-41
2022/08/23 13:32:59;;;;;;;;;;;;;;;;;;5033341;28;19964;-41
2022/08/23 13:35:24;;;;;;;;;;;;;;;;;;5031971;28;19944;-41
2022/08/23 13:37:49;;;;;;;;;;;;;;;;;;5033280;28;19924;-41
2022/08/23 13:40:15;;;;;;;;;;;;;;;;;;5033150;28;20393;-41
2022/08/23 13:42:40;;;;;;;;;;;;;;;;;;5033124;28;20032;-40
2022/08/23 13:45:05;;;;;;;;;;;;;;;;;;5031682;28;19913;-41
2022/08/23 13:47:30;;;;;;;;;;;;;;;;;;5033039;28;19917;-41
2022/08/23 13:49:56;;;;;;;;;;;;;;;;;;5032647;28;19909;-41
2022/08/23 13:52:21;;;;;;;;;;;;;;;;;;5032555;28;20028;-41
2022/08/23 13:54:46;;;;;;;;;;;;;;;;;;5032692;28;20008;-40
2022/08/23 13:57:12;;;;;;;;;;;;;;;;;;5032461;28;19920;-42
2022/08/23 13:59:37;;;;;;;;;;;;;;;;;;5032684;28;19916;-41
2022/08/23 14:02:02;;;;;;;;;;;;;;;;;;5032478;28;20515;-40
2022/08/23 14:04:28;;;;;;;;;;;;;;;;;;5032245;28;19921;-41
2022/08/23 14:06:53;;;;;;;;;;;;;;;;;;5032489;28;19952;-41
2022/08/23 14:09:18;;;;;;;;;;;;;;;;;;5032282;28;19917;-40
2022/08/23 14:11:44;;;;;;;;;;;;;;;;;;5031121;28;20020;-41
2022/08/23 14:14:09;;;;;;;;;;;;;;;;;;5032331;28;19941;-41
2022/08/23 14:16:36;;;;;;;;;;;;;;;;;;5032192;28;20389;-41
2022/08/23 14:19:02;;;;;;;;;;;;;;;;;;5032341;28;20493;-42
2022/08/23 14:21:27;;;;;;;;;;;;;;;;;;5032160;28;19997;-42
2022/08/23 14:23:53;;;;;;;;;;;;;;;;;;5032144;28;19960;-41
2022/08/23 14:26:18;;;;;;;;;;;;;;;;;;5032113;28;20000;-41
2022/08/23 14:28:43;;;;;;;;;;;;;;;;;;5032457;28;20003;-41
2022/08/23 14:31:09;;;;;;;;;;;;;;;;;;5031990;28;19952;-40
2022/08/23 14:33:34;;;;;;;;;;;;;;;;;;5032025;28;19913;-41
2022/08/23 14:35:59;;;;;;;;;;;;;;;;;;5047469;28;19913;-40
2022/08/23 14:38:25;;;;;;;;;;;;;;;;;;5031868;28;19913;-41
2022/08/23 14:40:50;;;;;;;;;;;;;;;;;;5032052;28;19917;-41
2022/08/23 14:43:15;;;;;;;;;;;;;;;;;;5031850;28;20366;-43
2022/08/23 14:45:41;;;;;;;;;;;;;;;;;;5031911;28;19961;-41
2022/08/23 14:48:06;;;;;;;;;;;;;;;;;;5031944;28;19909;-40
2022/08/23 14:50:31;;;;;;;;;;;;;;;;;;5032076;28;19917;-41
2022/08/23 14:52:56;;;;;;;;;;;;;;;;;;5031816;28;20416;-41
2022/08/23 14:55:22;;;;;;;;;;;;;;;;;;5047095;28;19913;-41
2022/08/23 14:57:50;;;;;;;;;;;;;;;;;;5031920;28;19917;-41
2022/08/23 15:00:16;;;;;;;;;;;;;;;;;;5031940;28;19913;-40
2022/08/23 15:02:41;;;;;;;;;;;;;;;;;;5031802;28;20000;-41
2022/08/23 15:05:06;;;;;;;;;;;;;;;;;;5031865;28;19921;-41
2022/08/23 15:07:32;;;;;;;;;;;;;;;;;;5033212;28;19909;-41
2022/08/23 15:09:57;;;;;;;;;;;;;;;;;;5035777;28;20374;-41
2022/08/23 15:12:22;;;;;;;;;;;;;;;;;;5035832;28;19924;-41
2022/08/23 15:14:48;;;;;;;;;;;;;;;;;;5035712;28;19917;-41
2022/08/23 15:17:13;;;;;;;;;;;;;;;;;;5035588;28;19913;-42
2022/08/23 15:19:38;;;;;;;;;;;;;;;;;;5035614;28;20004;-41
2022/08/23 15:22:03;;;;;;;;;;;;;;;;;;5035530;28;19913;-41
2022/08/23 15:24:30;;;;;;;;;;;;;;;;;;5035761;28;19914;-42
2022/08/23 15:26:58;;;;;;;;;;;;;;;;;;5035531;28;19916;-41
2022/08/23 15:29:23;;;;;;;;;;;;;;;;;;5035572;28;19917;-42
2022/08/23 15:31:49;;;;;;;;;;;;;;;;;;5035529;28;20306;-41
2022/08/23 15:34:14;;;;;;;;;;;;;;;;;;5035211;28;20493;-41
2022/08/23 15:36:39;;;;;;;;;;;;;;;;;;5035557;28;19963;-41
2022/08/23 15:39:05;;;;;;;;;;;;;;;;;;5035556;28;19917;-42
2022/08/23 15:41:31;;;;;;;;;;;;;;;;;;5035158;28;20083;-41
2022/08/23 15:43:56;;;;;;;;;;;;;;;;;;5035116;28;19913;-42
2022/08/23 15:46:21;;;;;;;;;;;;;;;;;;5035369;28;19913;-41
2022/08/23 15:48:47;;;;;;;;;;;;;;;;;;5033826;28;19913;-41
2022/08/23 15:51:13;;;;;;;;;;;;;;;;;;5034824;28;19921;-41
2022/08/23 15:53:38;;;;;;;;;;;;;;;;;;5034862;28;19917;-42
2022/08/23 15:56:04;;;;;;;;;;;;;;;;;;5035180;28;20325;-41
2022/08/23 15:58:29;;;;;;;;;;;;;;;;;;5035100;28;19960;-41
2022/08/23 16:00:54;;;;;;;;;;;;;;;;;;5034884;28;20462;-41
2022/08/23 16:03:20;;;;;;;;;;;;;;;;;;5034423;28;19921;-42
2022/08/23 16:05:45;;;;;;;;;;;;;;;;;;5034781;28;20036;-43
2022/08/23 16:08:10;;;;;;;;;;;;;;;;;;5035011;28;19917;-41
2022/08/23 16:10:37;;;;;;;;;;;;;;;;;;5034394;28;20016;-41
2022/08/23 16:13:03;;;;;;;;;;;;;;;;;;5034631;28;19946;-41
2022/08/23 16:15:28;;;;;;;;;;;;;;;;;;5034801;28;19909;-41
2022/08/23 16:17:53;;;;;;;;;;;;;;;;;;5034340;28;19974;-41
2022/08/23 16:20:19;;;;;;;;;;;;;;;;;;5032043;28;19996;-41
2022/08/23 16:22:44;;;;;;;;;;;;;;;;;;5034431;28;20005;-42
2022/08/23 16:25:09;;;;;;;;;;;;;;;;;;5034377;28;19960;-41
2022/08/23 16:27:35;;;;;;;;;;;;;;;;;;5034341;28;20512;-41
2022/08/23 16:30:00;;;;;;;;;;;;;;;;;;5034367;28;19917;-41
2022/08/23 16:32:25;;;;;;;;;;;;;;;;;;5033951;28;19925;-41
2022/08/23 16:34:51;;;;;;;;;;;;;;;;;;5034230;28;19920;-41
2022/08/23 16:37:16;;;;;;;;;;;;;;;;;;5034178;28;20008;-42
2022/08/23 16:39:43;;;;;;;;;;;;;;;;;;5034282;28;19916;-42
2022/08/23 16:42:09;;;;;;;;;;;;;;;;;;5034090;28;19917;-42
2022/08/23 16:44:34;;;;;;;;;;;;;;;;;;5033992;28;19913;-41
2022/08/23 16:46:59;;;;;;;;;;;;;;;;;;5033913;28;19920;-41
2022/08/23 16:49:25;;;;;;;;;;;;;;;;;;5034144;28;19909;-41
2022/08/23 16:51:51;;;;;;;;;;;;;;;;;;5033743;28;19929;-42
2022/08/23 16:54:18;;;;;;;;;;;;;;;;;;5032457;28;19963;-41
2022/08/23 16:56:43;;;;;;;;;;;;;;;;;;5034059;28;19917;-41
2022/08/23 16:59:08;;;;;;;;;;;;;;;;;;5033793;28;19979;-41